createdAt,value
2023-02-11T00:00:50.644Z,1024.38
2023-02-11T00:01:50.265Z,1024.38
2023-02-11T00:02:50.238Z,1024.37
2023-02-11T00:03:50.299Z,1024.38
2023-02-11T00:04:50.204Z,1024.34
2023-02-11T00:05:50.523Z,1024.36
2023-02-11T00:06:50.182Z,1024.36
2023-02-11T00:07:50.195Z,1024.35
2023-02-11T00:08:50.162Z,1024.32
2023-02-11T00:09:50.158Z,1024.31
2023-02-11T00:10:50.394Z,1024.35
2023-02-11T00:11:50.133Z,1024.35
2023-02-11T00:12:50.136Z,1024.44
2023-02-11T00:13:50.150Z,1024.44
2023-02-11T00:14:50.095Z,1024.45
2023-02-11T00:15:50.342Z,1024.50
2023-02-11T00:16:50.090Z,1024.54
2023-02-11T00:17:50.096Z,1024.53
2023-02-11T00:18:50.059Z,1024.58
2023-02-11T00:19:50.043Z,1024.59
2023-02-11T00:20:50.035Z,1024.56
2023-02-11T00:21:50.028Z,1024.66
2023-02-11T00:22:50.034Z,1024.68
2023-02-11T00:23:50.005Z,1024.68
2023-02-11T00:24:49.994Z,1024.69
2023-02-11T00:25:50.364Z,1024.69
2023-02-11T00:26:49.974Z,1024.71
2023-02-11T00:27:49.988Z,1024.68
2023-02-11T00:28:49.957Z,1024.64
2023-02-11T00:29:49.956Z,1024.63
2023-02-11T00:30:50.013Z,1024.59
2023-02-11T00:31:50.073Z,1024.49
2023-02-11T00:32:49.920Z,1024.48
2023-02-11T00:33:49.904Z,1024.39
2023-02-11T00:34:49.887Z,1024.38
2023-02-11T00:35:50.254Z,1024.30
2023-02-11T00:36:49.863Z,1024.31
2023-02-11T00:37:49.855Z,1024.30
2023-02-11T00:38:49.833Z,1024.30
2023-02-11T00:39:49.833Z,1024.29
2023-02-11T00:40:49.811Z,1024.32
2023-02-11T00:41:49.803Z,1024.30
2023-02-11T00:42:49.810Z,1024.32
2023-02-11T00:43:49.802Z,1024.32
2023-02-11T00:44:49.776Z,1024.31
2023-02-11T00:45:50.205Z,1024.28
2023-02-11T00:46:49.759Z,1024.34
2023-02-11T00:47:49.741Z,1024.34
2023-02-11T00:48:49.755Z,1024.39
2023-02-11T00:49:49.721Z,1024.38
2023-02-11T00:50:49.712Z,1024.40
2023-02-11T00:51:49.693Z,1024.51
2023-02-11T00:52:49.704Z,1024.54
2023-02-11T00:53:49.672Z,1024.55
2023-02-11T00:54:49.660Z,1024.52
2023-02-11T00:55:49.929Z,1024.53
2023-02-11T00:56:49.643Z,1024.46
2023-02-11T00:57:49.650Z,1024.51
2023-02-11T00:58:49.619Z,1024.49
2023-02-11T00:59:49.606Z,1024.42
2023-02-11T01:00:49.595Z,1024.42
2023-02-11T01:01:49.785Z,1024.39
2023-02-11T01:02:49.602Z,1024.43
2023-02-11T01:03:49.564Z,1024.36
2023-02-11T01:04:49.620Z,1024.34
2023-02-11T01:05:49.850Z,1024.30
2023-02-11T01:06:49.535Z,1024.33
2023-02-11T01:07:49.543Z,1024.32
2023-02-11T01:08:49.509Z,1024.28
2023-02-11T01:09:49.509Z,1024.31
2023-02-11T01:10:49.509Z,1024.21
2023-02-11T01:11:49.484Z,1024.11
2023-02-11T01:12:49.487Z,1024.10
2023-02-11T01:13:49.510Z,1024.09
2023-02-11T01:14:49.470Z,1024.08
2023-02-11T01:15:49.885Z,1024.07
2023-02-11T01:16:49.429Z,1024.06
2023-02-11T01:17:49.440Z,1023.98
2023-02-11T01:18:49.450Z,1023.99
2023-02-11T01:19:49.401Z,1023.86
2023-02-11T01:20:49.395Z,1023.84
2023-02-11T01:21:49.374Z,1023.81
2023-02-11T01:22:49.391Z,1023.79
2023-02-11T01:23:49.359Z,1023.74
2023-02-11T01:24:49.348Z,1023.65
2023-02-11T01:25:49.787Z,1023.66
2023-02-11T01:26:49.328Z,1023.62
2023-02-11T01:27:49.334Z,1023.59
2023-02-11T01:28:49.306Z,1023.62
2023-02-11T01:29:49.295Z,1023.64
2023-02-11T01:30:49.330Z,1023.58
2023-02-11T01:31:49.346Z,1023.62
2023-02-11T01:32:49.285Z,1023.60
2023-02-11T01:33:49.263Z,1023.58
2023-02-11T01:34:49.269Z,1023.53
2023-02-11T01:35:49.712Z,1023.54
2023-02-11T01:36:49.216Z,1023.55
2023-02-11T01:37:49.216Z,1023.59
2023-02-11T01:38:49.224Z,1023.63
2023-02-11T01:39:49.180Z,1023.64
2023-02-11T01:40:49.190Z,1023.61
2023-02-11T01:41:49.161Z,1023.60
2023-02-11T01:42:51.029Z,1023.57
2023-02-11T01:43:49.152Z,1023.57
2023-02-11T01:44:49.123Z,1023.45
2023-02-11T01:45:49.538Z,1023.42
2023-02-11T01:46:49.227Z,1023.46
2023-02-11T01:47:49.132Z,1023.46
2023-02-11T01:48:49.151Z,1023.46
2023-02-11T01:49:49.090Z,1023.50
2023-02-11T01:50:49.061Z,1023.48
2023-02-11T01:51:49.053Z,1023.39
2023-02-11T01:52:49.066Z,1023.32
2023-02-11T01:53:49.033Z,1023.31
2023-02-11T01:54:49.032Z,1023.29
2023-02-11T01:55:49.321Z,1023.31
2023-02-11T01:56:49.000Z,1023.34
2023-02-11T01:57:48.997Z,1023.33
2023-02-11T01:58:49.058Z,1023.39
2023-02-11T01:59:48.971Z,1023.44
2023-02-11T02:00:48.955Z,1023.50
2023-02-11T02:01:48.965Z,1023.51
2023-02-11T02:02:48.954Z,1023.51
2023-02-11T02:03:48.979Z,1023.42
2023-02-11T02:04:48.912Z,1023.44
2023-02-11T02:05:49.257Z,1023.39
2023-02-11T02:06:48.885Z,1023.44
2023-02-11T02:07:48.892Z,1023.39
2023-02-11T02:08:48.870Z,1023.42
2023-02-11T02:09:48.858Z,1023.46
2023-02-11T02:10:48.851Z,1023.35
2023-02-11T02:11:48.838Z,1023.30
2023-02-11T02:12:48.859Z,1023.26
2023-02-11T02:13:48.816Z,1023.26
2023-02-11T02:14:48.799Z,1023.26
2023-02-11T02:15:49.309Z,1023.24
2023-02-11T02:16:48.779Z,1023.28
2023-02-11T02:17:48.786Z,1023.29
2023-02-11T02:18:48.804Z,1023.29
2023-02-11T02:19:48.748Z,1023.32
2023-02-11T02:20:48.742Z,1023.34
2023-02-11T02:21:48.743Z,1023.34
2023-02-11T02:22:48.741Z,1023.34
2023-02-11T02:23:48.703Z,1023.31
2023-02-11T02:24:48.689Z,1023.29
2023-02-11T02:25:49.051Z,1023.23
2023-02-11T02:26:48.664Z,1023.22
2023-02-11T02:27:48.686Z,1023.28
2023-02-11T02:28:48.655Z,1023.29
2023-02-11T02:29:48.636Z,1023.29
2023-02-11T02:30:48.708Z,1023.31
2023-02-11T02:31:48.663Z,1023.32
2023-02-11T02:32:48.629Z,1023.25
2023-02-11T02:33:48.603Z,1023.25
2023-02-11T02:34:48.619Z,1023.18
2023-02-11T02:35:48.962Z,1023.09
2023-02-11T02:36:48.557Z,1023.17
2023-02-11T02:37:48.565Z,1023.16
2023-02-11T02:38:48.537Z,1023.11
2023-02-11T02:39:48.538Z,1023.02
2023-02-11T02:40:48.512Z,1023.04
2023-02-11T02:41:48.503Z,1023.02
2023-02-11T02:42:48.492Z,1023.06
2023-02-11T02:43:48.512Z,1023.03
2023-02-11T02:44:48.469Z,1023.02
2023-02-11T02:45:48.944Z,1023.01
2023-02-11T02:46:48.519Z,1022.94
2023-02-11T02:47:48.464Z,1022.99
2023-02-11T02:48:48.445Z,1022.94
2023-02-11T02:49:48.427Z,1022.86
2023-02-11T02:50:48.413Z,1022.88
2023-02-11T02:51:48.397Z,1022.88
2023-02-11T02:52:48.388Z,1022.86
2023-02-11T02:53:48.425Z,1022.84
2023-02-11T02:54:48.375Z,1022.86
2023-02-11T02:55:48.595Z,1022.86
2023-02-11T02:56:48.362Z,1022.93
2023-02-11T02:57:48.331Z,1022.91
2023-02-11T02:58:48.335Z,1022.85
2023-02-11T02:59:48.310Z,1022.90
2023-02-11T03:00:48.360Z,1022.91
2023-02-11T03:01:48.308Z,1022.90
2023-02-11T03:02:48.280Z,1022.93
2023-02-11T03:03:48.391Z,1022.84
2023-02-11T03:04:48.257Z,1022.87
2023-02-11T03:05:48.602Z,1022.82
2023-02-11T03:06:48.237Z,1022.81
2023-02-11T03:07:48.229Z,1022.82
2023-02-11T03:08:48.235Z,1022.80
2023-02-11T03:09:48.225Z,1022.78
2023-02-11T03:10:48.199Z,1022.76
2023-02-11T03:11:48.184Z,1022.73
2023-02-11T03:12:48.200Z,1022.75
2023-02-11T03:13:48.179Z,1022.72
2023-02-11T03:14:48.149Z,1022.74
2023-02-11T03:15:48.506Z,1022.74
2023-02-11T03:16:48.127Z,1022.72
2023-02-11T03:17:48.117Z,1022.67
2023-02-11T03:18:48.116Z,1022.68
2023-02-11T03:19:48.094Z,1022.71
2023-02-11T03:20:48.085Z,1022.70
2023-02-11T03:21:48.073Z,1022.69
2023-02-11T03:22:48.064Z,1022.69
2023-02-11T03:23:48.071Z,1022.74
2023-02-11T03:24:48.040Z,1022.73
2023-02-11T03:25:48.343Z,1022.71
2023-02-11T03:26:48.019Z,1022.71
2023-02-11T03:27:48.007Z,1022.74
2023-02-11T03:28:48.020Z,1022.78
2023-02-11T03:29:48.021Z,1022.75
2023-02-11T03:30:48.040Z,1022.82
2023-02-11T03:31:48.063Z,1022.81
2023-02-11T03:32:47.959Z,1022.75
2023-02-11T03:33:47.967Z,1022.73
2023-02-11T03:34:47.974Z,1022.75
2023-02-11T03:35:48.329Z,1022.73
2023-02-11T03:36:47.909Z,1022.78
2023-02-11T03:37:47.899Z,1022.76
2023-02-11T03:38:47.891Z,1022.75
2023-02-11T03:39:47.921Z,1022.79
2023-02-11T03:40:47.876Z,1022.78
2023-02-11T03:41:47.874Z,1022.74
2023-02-11T03:42:47.848Z,1022.78
2023-02-11T03:43:47.864Z,1022.77
2023-02-11T03:44:47.827Z,1022.75
2023-02-11T03:45:48.063Z,1022.71
2023-02-11T03:46:47.809Z,1022.76
2023-02-11T03:47:47.795Z,1022.74
2023-02-11T03:48:47.826Z,1022.78
2023-02-11T03:49:47.776Z,1022.70
2023-02-11T03:50:47.759Z,1022.71
2023-02-11T03:51:47.754Z,1022.69
2023-02-11T03:52:47.783Z,1022.67
2023-02-11T03:53:47.745Z,1022.66
2023-02-11T03:54:47.719Z,1022.69
2023-02-11T03:55:48.220Z,1022.67
2023-02-11T03:56:47.703Z,1022.69
2023-02-11T03:57:47.701Z,1022.75
2023-02-11T03:58:47.696Z,1022.74
2023-02-11T03:59:47.661Z,1022.70
2023-02-11T04:00:47.749Z,1022.71
2023-02-11T04:01:47.641Z,1022.75
2023-02-11T04:02:47.657Z,1022.74
2023-02-11T04:03:47.639Z,1022.80
2023-02-11T04:04:47.609Z,1022.85
2023-02-11T04:05:47.679Z,1022.75
2023-02-11T04:06:47.590Z,1022.72
2023-02-11T04:07:47.576Z,1022.72
2023-02-11T04:08:47.585Z,1022.70
2023-02-11T04:09:47.559Z,1022.73
2023-02-11T04:10:47.549Z,1022.71
2023-02-11T04:11:47.530Z,1022.70
2023-02-11T04:12:47.527Z,1022.65
2023-02-11T04:13:47.655Z,1022.66
2023-02-11T04:14:47.519Z,1022.60
2023-02-11T04:15:48.950Z,1022.62
2023-02-11T04:16:47.526Z,1022.67
2023-02-11T04:17:47.468Z,1022.72
2023-02-11T04:18:47.517Z,1022.71
2023-02-11T04:19:47.448Z,1022.71
2023-02-11T04:20:47.446Z,1022.78
2023-02-11T04:21:47.433Z,1022.74
2023-02-11T04:22:47.414Z,1022.76
2023-02-11T04:23:47.419Z,1022.73
2023-02-11T04:24:47.404Z,1022.75
2023-02-11T04:25:47.433Z,1022.75
2023-02-11T04:26:47.377Z,1022.77
2023-02-11T04:27:47.373Z,1022.75
2023-02-11T04:28:47.388Z,1022.76
2023-02-11T04:29:47.357Z,1022.73
2023-02-11T04:30:47.344Z,1022.77
2023-02-11T04:31:47.331Z,1022.68
2023-02-11T04:32:47.310Z,1022.77
2023-02-11T04:33:47.312Z,1022.67
2023-02-11T04:34:47.289Z,1022.67
2023-02-11T04:35:47.279Z,1022.65
2023-02-11T04:36:47.266Z,1022.60
2023-02-11T04:37:47.254Z,1022.65
2023-02-11T04:38:47.312Z,1022.68
2023-02-11T04:39:47.231Z,1022.64
2023-02-11T04:40:47.222Z,1022.60
2023-02-11T04:41:47.213Z,1022.60
2023-02-11T04:42:47.200Z,1022.62
2023-02-11T04:43:47.224Z,1022.60
2023-02-11T04:44:47.187Z,1022.58
2023-02-11T04:45:47.245Z,1022.59
2023-02-11T04:46:47.164Z,1022.58
2023-02-11T04:47:47.160Z,1022.59
2023-02-11T04:48:47.160Z,1022.53
2023-02-11T04:49:47.144Z,1022.46
2023-02-11T04:50:47.126Z,1022.51
2023-02-11T04:51:49.419Z,1022.44
2023-02-11T04:52:47.101Z,1022.47
2023-02-11T04:53:47.118Z,1022.53
2023-02-11T04:54:47.079Z,1022.53
2023-02-11T04:55:47.068Z,1022.47
2023-02-11T04:56:47.054Z,1022.41
2023-02-11T04:57:47.051Z,1022.41
2023-02-11T04:58:47.047Z,1022.46
2023-02-11T04:59:47.027Z,1022.35
2023-02-11T05:00:47.010Z,1022.37
2023-02-11T05:01:47.032Z,1022.33
2023-02-11T05:02:46.994Z,1022.31
2023-02-11T05:03:47.040Z,1022.39
2023-02-11T05:04:46.969Z,1022.35
2023-02-11T05:05:46.961Z,1022.34
2023-02-11T05:06:46.949Z,1022.31
2023-02-11T05:07:46.937Z,1022.29
2023-02-11T05:08:46.946Z,1022.29
2023-02-11T05:09:46.913Z,1022.26
2023-02-11T05:10:46.904Z,1022.22
2023-02-11T05:11:46.893Z,1022.15
2023-02-11T05:12:46.884Z,1022.18
2023-02-11T05:13:46.980Z,1022.14
2023-02-11T05:14:46.966Z,1022.10
2023-02-11T05:15:46.856Z,1022.07
2023-02-11T05:16:46.930Z,1022.07
2023-02-11T05:17:46.859Z,1022.06
2023-02-11T05:18:46.830Z,1022.05
2023-02-11T05:19:46.815Z,1022.07
2023-02-11T05:20:46.794Z,1022.01
2023-02-11T05:22:01.467Z,1022.00
2023-02-11T05:22:47.766Z,1021.94
2023-02-11T05:23:46.801Z,1021.95
2023-02-11T05:24:46.753Z,1021.93
2023-02-11T05:25:46.739Z,1021.92
2023-02-11T05:26:46.729Z,1021.93
2023-02-11T05:27:46.718Z,1021.89
2023-02-11T05:28:46.729Z,1021.83
2023-02-11T05:29:46.699Z,1021.74
2023-02-11T05:30:46.741Z,1021.80
2023-02-11T05:31:46.700Z,1021.79
2023-02-11T05:32:46.660Z,1021.76
2023-02-11T05:33:46.693Z,1021.76
2023-02-11T05:34:46.644Z,1021.77
2023-02-11T05:35:46.634Z,1021.80
2023-02-11T05:36:46.619Z,1021.77
2023-02-11T05:37:46.613Z,1021.82
2023-02-11T05:38:46.638Z,1021.77
2023-02-11T05:39:46.591Z,1021.74
2023-02-11T05:40:46.581Z,1021.72
2023-02-11T05:41:46.575Z,1021.73
2023-02-11T05:42:46.553Z,1021.69
2023-02-11T05:43:46.569Z,1021.65
2023-02-11T05:44:48.025Z,1021.68
2023-02-11T05:45:46.531Z,1021.65
2023-02-11T05:46:46.606Z,1021.67
2023-02-11T05:47:46.506Z,1021.65
2023-02-11T05:48:46.515Z,1021.62
2023-02-11T05:49:46.514Z,1021.59
2023-02-11T05:50:46.472Z,1021.59
2023-02-11T05:51:46.465Z,1021.58
2023-02-11T05:52:46.452Z,1021.59
2023-02-11T05:53:46.458Z,1021.61
2023-02-11T05:54:46.423Z,1021.60
2023-02-11T05:55:46.430Z,1021.63
2023-02-11T05:56:46.410Z,1021.67
2023-02-11T05:57:46.397Z,1021.70
2023-02-11T05:58:46.392Z,1021.70
2023-02-11T05:59:46.372Z,1021.71
2023-02-11T06:00:46.378Z,1021.68
2023-02-11T06:01:46.349Z,1021.74
2023-02-11T06:02:46.404Z,1021.70
2023-02-11T06:03:46.418Z,1021.72
2023-02-11T06:04:46.319Z,1021.77
2023-02-11T06:05:46.323Z,1021.71
2023-02-11T06:06:46.295Z,1021.70
2023-02-11T06:07:46.294Z,1021.71
2023-02-11T06:08:46.292Z,1021.67
2023-02-11T06:09:46.265Z,1021.71
2023-02-11T06:10:46.251Z,1021.75
2023-02-11T06:11:46.246Z,1021.82
2023-02-11T06:12:46.235Z,1021.86
2023-02-11T06:13:46.263Z,1021.90
2023-02-11T06:14:46.207Z,1021.88
2023-02-11T06:15:46.230Z,1021.86
2023-02-11T06:16:46.207Z,1021.87
2023-02-11T06:17:46.177Z,1021.82
2023-02-11T06:18:46.170Z,1021.81
2023-02-11T06:19:46.176Z,1021.77
2023-02-11T06:20:46.154Z,1021.75
2023-02-11T06:21:46.166Z,1021.74
2023-02-11T06:22:46.122Z,1021.75
2023-02-11T06:23:46.115Z,1021.76
2023-02-11T06:24:59.969Z,1021.85
2023-02-11T06:25:47.093Z,1021.80
2023-02-11T06:26:46.082Z,1021.77
2023-02-11T06:27:46.069Z,1021.82
2023-02-11T06:28:46.208Z,1021.83
2023-02-11T06:29:46.065Z,1021.81
2023-02-11T06:30:46.104Z,1021.77
2023-02-11T06:31:46.226Z,1021.78
2023-02-11T06:32:46.398Z,1021.75
2023-02-11T06:33:46.016Z,1021.74
2023-02-11T06:34:46.005Z,1021.78
2023-02-11T06:35:45.987Z,1021.76
2023-02-11T06:36:45.976Z,1021.74
2023-02-11T06:37:45.989Z,1021.73
2023-02-11T06:38:45.954Z,1021.72
2023-02-11T06:39:45.953Z,1021.74
2023-02-11T06:40:45.930Z,1021.70
2023-02-11T06:41:45.919Z,1021.67
2023-02-11T06:42:45.916Z,1021.71
2023-02-11T06:43:45.899Z,1021.70
2023-02-11T06:44:45.903Z,1021.65
2023-02-11T06:45:45.879Z,1021.66
2023-02-11T06:46:45.947Z,1021.60
2023-02-11T06:47:45.859Z,1021.61
2023-02-11T06:48:45.844Z,1021.69
2023-02-11T06:49:45.848Z,1021.65
2023-02-11T06:50:45.826Z,1021.64
2023-02-11T06:51:45.820Z,1021.62
2023-02-11T06:52:45.800Z,1021.64
2023-02-11T06:53:45.812Z,1021.70
2023-02-11T06:54:45.797Z,1021.68
2023-02-11T06:55:45.782Z,1021.63
2023-02-11T06:56:45.772Z,1021.55
2023-02-11T06:57:45.751Z,1021.61
2023-02-11T06:58:45.739Z,1021.68
2023-02-11T06:59:45.730Z,1021.64
2023-02-11T07:00:45.721Z,1021.59
2023-02-11T07:01:45.782Z,1021.71
2023-02-11T07:02:45.773Z,1021.71
2023-02-11T07:03:45.692Z,1021.76
2023-02-11T07:04:45.688Z,1021.73
2023-02-11T07:05:45.663Z,1021.70
2023-02-11T07:06:45.650Z,1021.64
2023-02-11T07:07:45.641Z,1021.72
2023-02-11T07:08:45.630Z,1021.74
2023-02-11T07:09:45.650Z,1021.67
2023-02-11T07:10:45.611Z,1021.61
2023-02-11T07:11:45.599Z,1021.63
2023-02-11T07:12:45.594Z,1021.55
2023-02-11T07:13:45.575Z,1021.60
2023-02-11T07:14:45.576Z,1021.56
2023-02-11T07:15:45.571Z,1021.53
2023-02-11T07:16:45.549Z,1021.56
2023-02-11T07:17:45.534Z,1021.57
2023-02-11T07:18:45.523Z,1021.53
2023-02-11T07:19:52.640Z,1021.60
2023-02-11T07:20:45.505Z,1021.55
2023-02-11T07:21:45.492Z,1021.55
2023-02-11T07:22:45.478Z,1021.60
2023-02-11T07:23:45.469Z,1021.50
2023-02-11T07:24:45.484Z,1021.52
2023-02-11T07:25:45.474Z,1021.52
2023-02-11T07:26:45.434Z,1021.50
2023-02-11T07:27:45.428Z,1021.55
2023-02-11T07:28:45.413Z,1021.56
2023-02-11T07:29:45.421Z,1021.55
2023-02-11T07:30:45.423Z,1021.51
2023-02-11T07:31:45.482Z,1021.51
2023-02-11T07:32:45.375Z,1021.41
2023-02-11T07:33:45.359Z,1021.38
2023-02-11T07:34:45.561Z,1021.48
2023-02-11T07:35:45.340Z,1021.43
2023-02-11T07:36:45.357Z,1021.43
2023-02-11T07:37:45.316Z,1021.38
2023-02-11T07:38:45.305Z,1021.41
2023-02-11T07:39:45.304Z,1021.35
2023-02-11T07:40:45.281Z,1021.37
2023-02-11T07:41:45.298Z,1021.28
2023-02-11T07:42:45.277Z,1021.28
2023-02-11T07:43:45.251Z,1021.27
2023-02-11T07:44:45.252Z,1021.20
2023-02-11T07:45:45.227Z,1021.20
2023-02-11T07:46:45.323Z,1021.24
2023-02-11T07:47:45.244Z,1021.28
2023-02-11T07:48:45.202Z,1021.36
2023-02-11T07:49:45.184Z,1021.40
2023-02-11T07:50:45.174Z,1021.45
2023-02-11T07:51:45.166Z,1021.41
2023-02-11T07:52:45.393Z,1021.43
2023-02-11T07:53:45.145Z,1021.37
2023-02-11T07:54:45.382Z,1021.32
2023-02-11T07:55:45.121Z,1021.31
2023-02-11T07:56:45.130Z,1021.41
2023-02-11T07:57:45.114Z,1021.40
2023-02-11T07:58:45.091Z,1021.40
2023-02-11T07:59:45.085Z,1021.33
2023-02-11T08:00:45.126Z,1021.32
2023-02-11T08:01:45.071Z,1021.37
2023-02-11T08:02:45.056Z,1021.40
2023-02-11T08:03:45.038Z,1021.41
2023-02-11T08:04:45.050Z,1021.39
2023-02-11T08:05:45.010Z,1021.39
2023-02-11T08:06:44.999Z,1021.34
2023-02-11T08:07:44.991Z,1021.33
2023-02-11T08:08:44.984Z,1021.25
2023-02-11T08:09:44.976Z,1021.34
2023-02-11T08:10:44.990Z,1021.37
2023-02-11T08:11:44.984Z,1021.40
2023-02-11T08:12:44.933Z,1021.41
2023-02-11T08:13:44.955Z,1021.48
2023-02-11T08:14:44.919Z,1021.53
2023-02-11T08:15:44.920Z,1021.53
2023-02-11T08:16:44.909Z,1021.58
2023-02-11T08:17:44.876Z,1021.60
2023-02-11T08:18:44.868Z,1021.59
2023-02-11T08:19:44.862Z,1021.61
2023-02-11T08:20:44.868Z,1021.64
2023-02-11T08:21:44.844Z,1021.70
2023-02-11T08:22:44.832Z,1021.73
2023-02-11T08:23:44.813Z,1021.73
2023-02-11T08:24:44.799Z,1021.76
2023-02-11T08:25:44.812Z,1021.85
2023-02-11T08:26:44.780Z,1021.94
2023-02-11T08:27:44.780Z,1021.84
2023-02-11T08:28:44.805Z,1021.87
2023-02-11T08:29:44.765Z,1021.88
2023-02-11T08:30:44.780Z,1021.82
2023-02-11T08:31:44.860Z,1021.84
2023-02-11T08:32:44.722Z,1021.80
2023-02-11T08:33:44.699Z,1021.80
2023-02-11T08:34:44.714Z,1021.89
2023-02-11T08:35:44.696Z,1021.80
2023-02-11T08:36:44.670Z,1021.82
2023-02-11T08:37:44.654Z,1021.89
2023-02-11T08:38:44.656Z,1021.87
2023-02-11T08:39:44.633Z,1021.85
2023-02-11T08:40:44.635Z,1021.79
2023-02-11T08:41:44.627Z,1021.80
2023-02-11T08:42:44.601Z,1021.82
2023-02-11T08:43:44.599Z,1021.76
2023-02-11T08:44:44.581Z,1021.79
2023-02-11T08:45:44.616Z,1021.91
2023-02-11T08:46:44.559Z,1021.79
2023-02-11T08:48:38.130Z,1021.93
2023-02-11T08:49:38.112Z,1021.95
2023-02-11T08:50:38.106Z,1021.94
2023-02-11T08:51:38.097Z,1021.88
2023-02-11T08:52:38.118Z,1021.89
2023-02-11T08:53:38.075Z,1021.80
2023-02-11T08:54:38.064Z,1021.69
2023-02-11T08:55:38.061Z,1021.65
2023-02-11T08:56:38.051Z,1021.70
2023-02-11T08:57:38.045Z,1021.66
2023-02-11T08:58:38.037Z,1021.66
2023-02-11T08:59:38.006Z,1021.59
2023-02-11T09:00:38.017Z,1021.57
2023-02-11T09:01:38.078Z,1021.59
2023-02-11T09:02:38.063Z,1021.58
2023-02-11T09:03:37.965Z,1021.59
2023-02-11T09:04:37.960Z,1021.56
2023-02-11T09:05:37.961Z,1021.55
2023-02-11T09:06:37.935Z,1021.55
2023-02-11T09:07:37.920Z,1021.56
2023-02-11T09:08:37.931Z,1021.51
2023-02-11T09:09:37.906Z,1021.47
2023-02-11T09:10:37.891Z,1021.51
2023-02-11T09:11:37.878Z,1021.46
2023-02-11T09:12:37.870Z,1021.47
2023-02-11T09:13:37.876Z,1021.41
2023-02-11T09:14:37.862Z,1021.55
2023-02-11T09:15:37.846Z,1021.44
2023-02-11T09:16:37.852Z,1021.46
2023-02-11T09:17:37.843Z,1021.51
2023-02-11T09:18:37.804Z,1021.53
2023-02-11T09:19:37.795Z,1021.60
2023-02-11T09:20:37.793Z,1021.64
2023-02-11T09:21:37.772Z,1021.70
2023-02-11T09:22:37.762Z,1021.63
2023-02-11T09:23:37.762Z,1021.69
2023-02-11T09:24:37.739Z,1021.68
2023-02-11T09:25:37.776Z,1021.67
2023-02-11T09:26:37.728Z,1021.71
2023-02-11T09:27:37.713Z,1021.75
2023-02-11T09:28:37.761Z,1021.78
2023-02-11T09:29:37.685Z,1021.88
2023-02-11T09:30:37.821Z,1021.88
2023-02-11T09:31:37.863Z,1021.85
2023-02-11T09:32:37.656Z,1021.86
2023-02-11T09:33:37.659Z,1021.72
2023-02-11T09:34:37.632Z,1021.74
2023-02-11T09:35:37.622Z,1021.69
2023-02-11T09:36:37.667Z,1021.70
2023-02-11T09:37:37.670Z,1021.77
2023-02-11T09:38:37.590Z,1021.81
2023-02-11T09:39:37.582Z,1021.86
2023-02-11T09:40:37.572Z,1021.88
2023-02-11T09:41:37.600Z,1021.90
2023-02-11T09:42:37.547Z,1021.93
2023-02-11T09:43:37.535Z,1021.87
2023-02-11T09:44:37.531Z,1021.94
2023-02-11T09:45:37.520Z,1021.95
2023-02-11T09:46:37.518Z,1021.99
2023-02-11T09:47:37.521Z,1022.06
2023-02-11T09:48:37.483Z,1022.08
2023-02-11T09:49:37.489Z,1022.10
2023-02-11T09:50:37.470Z,1022.10
2023-02-11T09:51:37.469Z,1022.05
2023-02-11T09:52:37.453Z,1022.10
2023-02-11T09:53:37.431Z,1022.17
2023-02-11T09:54:37.426Z,1022.12
2023-02-11T09:55:37.415Z,1022.15
2023-02-11T09:56:37.428Z,1022.22
2023-02-11T09:57:37.390Z,1022.20
2023-02-11T09:58:37.403Z,1022.21
2023-02-11T09:59:37.368Z,1022.20
2023-02-11T10:00:37.361Z,1022.15
2023-02-11T10:01:37.427Z,1022.23
2023-02-11T10:02:37.338Z,1022.26
2023-02-11T10:03:37.349Z,1022.27
2023-02-11T10:04:37.399Z,1022.29
2023-02-11T10:05:37.333Z,1022.25
2023-02-11T10:06:37.296Z,1022.28
2023-02-11T10:07:37.284Z,1022.26
2023-02-11T10:08:37.294Z,1022.23
2023-02-11T10:09:37.262Z,1022.22
2023-02-11T10:10:37.252Z,1022.24
2023-02-11T10:11:37.242Z,1022.24
2023-02-11T10:12:37.233Z,1022.20
2023-02-11T10:13:37.232Z,1022.19
2023-02-11T10:14:37.211Z,1022.20
2023-02-11T10:15:37.229Z,1022.23
2023-02-11T10:16:37.193Z,1022.29
2023-02-11T10:17:37.179Z,1022.27
2023-02-11T10:18:37.192Z,1022.25
2023-02-11T10:19:37.157Z,1022.24
2023-02-11T10:20:37.157Z,1022.18
2023-02-11T10:21:37.156Z,1022.17
2023-02-11T10:22:37.129Z,1022.20
2023-02-11T10:23:37.134Z,1022.14
2023-02-11T10:24:37.104Z,1022.15
2023-02-11T10:25:37.103Z,1022.18
2023-02-11T10:26:37.163Z,1022.21
2023-02-11T10:27:37.071Z,1022.23
2023-02-11T10:28:37.119Z,1022.26
2023-02-11T10:29:37.052Z,1022.25
2023-02-11T10:30:37.073Z,1022.32
2023-02-11T10:31:37.210Z,1022.30
2023-02-11T10:32:37.026Z,1022.31
2023-02-11T10:33:37.009Z,1022.34
2023-02-11T10:34:37.000Z,1022.37
2023-02-11T10:35:37.009Z,1022.37
2023-02-11T10:36:36.989Z,1022.37
2023-02-11T10:37:36.983Z,1022.31
2023-02-11T10:38:36.962Z,1022.33
2023-02-11T10:39:36.950Z,1022.36
2023-02-11T10:40:36.934Z,1022.27
2023-02-11T10:41:36.969Z,1022.20
2023-02-11T10:42:36.918Z,1022.22
2023-02-11T10:43:36.909Z,1022.20
2023-02-11T10:44:36.892Z,1022.19
2023-02-11T10:45:36.918Z,1022.13
2023-02-11T10:46:36.960Z,1022.10
2023-02-11T10:47:36.859Z,1022.15
2023-02-11T10:48:36.857Z,1022.14
2023-02-11T10:49:36.857Z,1022.09
2023-02-11T10:50:36.832Z,1022.04
2023-02-11T10:51:36.822Z,1022.04
2023-02-11T10:52:36.806Z,1022.03
2023-02-11T10:53:36.816Z,1021.97
2023-02-11T10:54:36.806Z,1022.09
2023-02-11T10:55:36.772Z,1022.10
2023-02-11T10:56:36.782Z,1022.11
2023-02-11T10:57:36.751Z,1022.10
2023-02-11T10:58:36.741Z,1022.11
2023-02-11T10:59:36.734Z,1022.14
2023-02-11T11:00:36.764Z,1022.22
2023-02-11T11:01:36.726Z,1022.14
2023-02-11T11:02:36.701Z,1022.17
2023-02-11T11:03:36.688Z,1022.07
2023-02-11T11:04:36.727Z,1022.01
2023-02-11T11:05:36.669Z,1022.03
2023-02-11T11:06:36.685Z,1022.01
2023-02-11T11:07:36.644Z,1021.96
2023-02-11T11:08:36.635Z,1021.94
2023-02-11T11:09:36.640Z,1021.91
2023-02-11T11:10:36.615Z,1021.91
2023-02-11T11:11:36.621Z,1021.92
2023-02-11T11:12:36.593Z,1021.92
2023-02-11T11:13:36.580Z,1021.92
2023-02-11T11:14:36.594Z,1021.93
2023-02-11T11:15:36.591Z,1021.96
2023-02-11T11:16:36.579Z,1021.97
2023-02-11T11:17:36.539Z,1021.98
2023-02-11T11:18:36.529Z,1021.98
2023-02-11T11:19:36.522Z,1021.94
2023-02-11T11:20:36.509Z,1021.97
2023-02-11T11:21:36.516Z,1021.94
2023-02-11T11:22:36.485Z,1021.94
2023-02-11T11:23:36.541Z,1021.93
2023-02-11T11:24:36.489Z,1021.86
2023-02-11T11:25:36.473Z,1021.84
2023-02-11T11:26:36.462Z,1021.80
2023-02-11T11:27:36.438Z,1021.80
2023-02-11T11:28:36.484Z,1021.80
2023-02-11T11:29:36.414Z,1021.80
2023-02-11T11:30:36.444Z,1021.76
2023-02-11T11:31:36.538Z,1021.73
2023-02-11T11:32:36.382Z,1021.74
2023-02-11T11:33:36.367Z,1021.72
2023-02-11T11:34:36.361Z,1021.74
2023-02-11T11:35:36.351Z,1021.82
2023-02-11T11:36:36.394Z,1021.90
2023-02-11T11:37:36.362Z,1021.94
2023-02-11T11:38:36.313Z,1021.95
2023-02-11T11:39:36.302Z,1022.03
2023-02-11T11:40:36.310Z,1022.05
2023-02-11T11:41:36.319Z,1021.99
2023-02-11T11:42:36.271Z,1022.04
2023-02-11T11:43:36.307Z,1022.02
2023-02-11T11:44:36.260Z,1021.95
2023-02-11T11:45:36.249Z,1021.94
2023-02-11T11:46:36.326Z,1021.94
2023-02-11T11:47:36.213Z,1021.89
2023-02-11T11:48:36.210Z,1021.87
2023-02-11T11:49:36.193Z,1021.90
2023-02-11T11:50:36.180Z,1021.93
2023-02-11T11:51:36.200Z,1021.92
2023-02-11T11:52:36.174Z,1021.98
2023-02-11T11:53:36.149Z,1022.02
2023-02-11T11:54:36.137Z,1022.03
2023-02-11T11:55:36.132Z,1022.02
2023-02-11T11:56:36.130Z,1021.98
2023-02-11T11:57:36.123Z,1021.91
2023-02-11T11:58:36.100Z,1021.94
2023-02-11T11:59:36.182Z,1021.93
2023-02-11T12:00:36.087Z,1021.93
2023-02-11T12:01:36.134Z,1021.94
2023-02-11T12:02:36.056Z,1021.88
2023-02-11T12:03:36.055Z,1021.91
2023-02-11T12:04:36.056Z,1021.96
2023-02-11T12:05:36.020Z,1021.94
2023-02-11T12:06:36.064Z,1021.95